Time;durP1;ratioP1;P1;durP2;ratioP2;P2;SDS_P1;SDS_P2;PMS_P1;PMS_P2;Temp;Humidity;BMP_temperature;BMP_pressure;BME280_temperature;BME280_humidity;BME280_pressure;Samples;Min_cycle;Max_cycle;Signal;HPM_P1;HPM_P2
2021/10/07 00:01:24;;;;;;;;;;;;;;;5.13;100.00;101724.78;5071917;28;19924;-73
2021/10/07 00:03:52;;;;;;;;;;;;;;;5.09;100.00;101723.16;5071433;28;20001;-72
2021/10/07 00:06:18;;;;;;;;;;;;;;;5.08;100.00;101724.09;5071291;28;19935;-72
2021/10/07 00:08:44;;;;;;;;;;;;;;;5.08;100.00;101725.88;5071583;28;21895;-68
2021/10/07 00:11:12;;;;;;;;;;;;;;;4.99;100.00;101724.47;5071753;28;20015;-68
2021/10/07 00:13:38;;;;;;;;;;;;;;;4.93;100.00;101727.41;5071874;28;20354;-68
2021/10/07 00:16:05;;;;;;;;;;;;;;;4.94;100.00;101730.03;5071532;28;19924;-68
2021/10/07 00:18:36;;;;;;;;;;;;;;;4.90;100.00;101730.22;5071869;28;20007;-68
2021/10/07 00:21:04;;;;;;;;;;;;;;;4.87;100.00;101739.31;5071646;28;20303;-68
2021/10/07 00:23:33;;;;;;;;;;;;;;;4.84;100.00;101734.94;5071567;28;20082;-69
2021/10/07 00:25:59;;;;;;;;;;;;;;;4.78;100.00;101724.41;5071264;28;19925;-68
2021/10/07 00:28:29;;;;;;;;;;;;;;;4.72;100.00;101730.06;5071409;28;20027;-68
2021/10/07 00:30:58;;;;;;;;;;;;;;;4.70;100.00;101731.91;5070403;28;20367;-68
2021/10/07 00:33:28;;;;;;;;;;;;;;;4.75;100.00;101735.28;5071423;28;19963;-69
2021/10/07 00:36:09;;;;;;;;;;;;;;;4.75;100.00;101738.00;5071597;28;19931;-72
2021/10/07 00:41:20;;;;;;;;;;;;;;;4.69;100.00;101740.94;5071016;28;19936;-73
2021/10/07 00:43:47;;;;;;;;;;;;;;;4.63;100.00;101742.03;5070716;28;20022;-68
2021/10/07 00:46:13;;;;;;;;;;;;;;;4.61;100.00;101738.56;5070841;28;20298;-68
2021/10/07 00:48:39;;;;;;;;;;;;;;;4.60;100.00;101741.31;5070967;28;19931;-69
2021/10/07 00:51:06;;;;;;;;;;;;;;;4.61;100.00;101746.63;5070270;28;19951;-69
2021/10/07 00:53:32;;;;;;;;;;;;;;;4.57;100.00;101750.38;5071086;28;20023;-68
2021/10/07 00:56:01;;;;;;;;;;;;;;;4.57;100.00;101758.44;5070775;28;19924;-68
2021/10/07 00:58:27;;;;;;;;;;;;;;;4.68;100.00;101758.88;5070864;28;19924;-68
2021/10/07 01:00:54;;;;;;;;;;;;;;;4.71;100.00;101760.56;5071244;28;20277;-69
2021/10/07 01:03:20;;;;;;;;;;;;;;;4.71;100.00;101770.47;5070183;28;20411;-69
2021/10/07 01:05:47;;;;;;;;;;;;;;;4.78;100.00;101774.66;5070299;28;19932;-68
2021/10/07 01:08:13;;;;;;;;;;;;;;;4.80;100.00;101770.09;5052029;28;20392;-69
2021/10/07 01:10:39;;;;;;;;;;;;;;;4.80;100.00;101770.09;5052583;28;19968;-69
2021/10/07 01:13:12;;;;;;;;;;;;;;;4.75;100.00;101772.97;5070348;28;19932;-69
2021/10/07 01:15:38;;;;;;;;;;;;;;;4.70;100.00;101769.56;5054861;28;19925;-68
2021/10/07 01:18:05;;;;;;;;;;;;;;;4.63;100.00;101773.47;5075078;28;20384;-68
2021/10/07 01:20:32;;;;;;;;;;;;;;;4.60;100.00;101773.59;5074719;28;19959;-69
2021/10/07 01:22:59;;;;;;;;;;;;;;;4.59;100.00;101767.31;5075111;28;20019;-69
2021/10/07 01:25:25;;;;;;;;;;;;;;;4.57;100.00;101771.91;5074871;28;19931;-68
2021/10/07 01:27:56;;;;;;;;;;;;;;;4.49;100.00;101771.28;5074894;28;19957;-69
2021/10/07 01:30:23;;;;;;;;;;;;;;;4.48;100.00;101777.63;5074787;28;20382;-68
2021/10/07 01:32:49;;;;;;;;;;;;;;;4.42;100.00;101776.03;5074861;28;19924;-69
2021/10/07 01:35:15;;;;;;;;;;;;;;;4.39;100.00;101780.69;5074454;28;19947;-68
2021/10/07 01:37:43;;;;;;;;;;;;;;;4.38;100.00;101781.59;5074401;28;19931;-68
2021/10/07 01:40:11;;;;;;;;;;;;;;;4.36;100.00;101781.66;5074805;28;19930;-68
2021/10/07 01:42:38;;;;;;;;;;;;;;;4.28;100.00;101773.88;5074498;28;20303;-68
2021/10/07 01:45:05;;;;;;;;;;;;;;;4.28;100.00;101778.41;5074672;28;19924;-69
2021/10/07 01:47:31;;;;;;;;;;;;;;;4.23;100.00;101781.25;5074504;28;20043;-68
2021/10/07 01:49:57;;;;;;;;;;;;;;;4.20;100.00;101781.38;5074571;28;19924;-68
2021/10/07 01:52:24;;;;;;;;;;;;;;;4.20;100.00;101778.69;5056815;28;20019;-68
2021/10/07 01:54:51;;;;;;;;;;;;;;;4.16;100.00;101785.09;5074250;28;20392;-68
2021/10/07 01:57:18;;;;;;;;;;;;;;;4.13;100.00;101782.50;5073925;28;20375;-68
2021/10/07 01:59:44;;;;;;;;;;;;;;;4.11;100.00;101784.41;5074346;28;19925;-68
2021/10/07 02:02:10;;;;;;;;;;;;;;;4.11;100.00;101779.03;5074180;28;20022;-72
2021/10/07 02:04:36;;;;;;;;;;;;;;;4.13;100.00;101777.13;5074422;28;20011;-73
2021/10/07 02:07:03;;;;;;;;;;;;;;;4.13;100.00;101778.03;5074072;28;20039;-68
2021/10/07 02:09:29;;;;;;;;;;;;;;;4.11;100.00;101781.72;5074429;28;19925;-68
2021/10/07 02:11:57;;;;;;;;;;;;;;;4.09;100.00;101787.16;5072666;28;20263;-68
2021/10/07 02:14:24;;;;;;;;;;;;;;;4.04;100.00;101791.81;5074114;28;20019;-68
2021/10/07 02:16:51;;;;;;;;;;;;;;;3.93;100.00;101789.53;5073518;28;19931;-68
2021/10/07 02:19:18;;;;;;;;;;;;;;;3.88;100.00;101787.94;5074194;28;20023;-68
2021/10/07 02:21:45;;;;;;;;;;;;;;;3.82;100.00;101802.44;5073997;28;19924;-68
2021/10/07 02:24:11;;;;;;;;;;;;;;;3.76;100.00;101803.56;5073859;28;19930;-68
2021/10/07 02:26:38;;;;;;;;;;;;;;;3.76;100.00;101808.94;5073919;28;19929;-68
2021/10/07 02:29:05;;;;;;;;;;;;;;;3.76;100.00;101813.44;5073627;28;20018;-73
2021/10/07 02:31:32;;;;;;;;;;;;;;;3.77;100.00;101810.69;5073575;28;19931;-72
2021/10/07 02:33:58;;;;;;;;;;;;;;;3.75;100.00;101811.66;5073474;28;19928;-72
2021/10/07 02:36:25;;;;;;;;;;;;;;;3.75;100.00;101808.97;5073634;28;19970;-72
2021/10/07 02:38:51;;;;;;;;;;;;;;;3.77;100.00;101818.75;5073805;28;20019;-72
2021/10/07 02:41:17;;;;;;;;;;;;;;;3.78;100.00;101823.19;5073251;28;19958;-73
2021/10/07 02:43:44;;;;;;;;;;;;;;;3.78;100.00;101825.88;5073741;28;19924;-71
2021/10/07 02:46:12;;;;;;;;;;;;;;;3.78;100.00;101825.88;5073210;28;20031;-72
2021/10/07 02:48:39;;;;;;;;;;;;;;;3.73;100.00;101830.53;5073346;28;20043;-70
2021/10/07 02:51:05;;;;;;;;;;;;;;;3.65;100.00;101833.47;5073195;28;19930;-72
2021/10/07 02:53:32;;;;;;;;;;;;;;;3.58;100.00;101840.00;5073417;28;19956;-72
2021/10/07 02:55:59;;;;;;;;;;;;;;;3.60;100.00;101843.50;5073243;28;19968;-72
2021/10/07 02:58:25;;;;;;;;;;;;;;;3.60;100.00;101842.63;5073219;28;19964;-71
2021/10/07 03:00:51;;;;;;;;;;;;;;;3.52;100.00;101846.44;5072078;28;19931;-73
2021/10/07 03:03:19;;;;;;;;;;;;;;;3.49;100.00;101848.38;5073010;28;20086;-73
2021/10/07 03:05:46;;;;;;;;;;;;;;;3.49;100.00;101849.22;5071584;28;20652;-73
2021/10/07 03:08:12;;;;;;;;;;;;;;;3.45;100.00;101852.94;5073112;28;19981;-73
2021/10/07 03:10:39;;;;;;;;;;;;;;;3.42;100.00;101861.13;5072929;28;20027;-73
2021/10/07 03:13:05;;;;;;;;;;;;;;;3.40;100.00;101854.91;5072796;28;20010;-73
2021/10/07 03:15:31;;;;;;;;;;;;;;;3.43;100.00;101870.03;5072993;28;19956;-73
2021/10/07 03:17:58;;;;;;;;;;;;;;;3.54;100.00;101884.00;5072751;28;19924;-73
2021/10/07 03:20:26;;;;;;;;;;;;;;;3.64;100.00;101868.44;5072913;28;20032;-73
2021/10/07 03:22:52;;;;;;;;;;;;;;;3.71;100.00;101874.47;5072346;28;20011;-73
2021/10/07 03:25:19;;;;;;;;;;;;;;;3.64;100.00;101876.50;5072670;28;20362;-74
2021/10/07 03:27:45;;;;;;;;;;;;;;;3.58;100.00;101880.28;5072333;28;20376;-74
2021/10/07 03:30:11;;;;;;;;;;;;;;;3.55;100.00;101877.66;5072607;28;20023;-73
2021/10/07 03:32:38;;;;;;;;;;;;;;;3.54;100.00;101877.72;5072276;28;19960;-74
2021/10/07 03:35:04;;;;;;;;;;;;;;;3.54;100.00;101880.41;5072342;28;20015;-73
2021/10/07 03:37:32;;;;;;;;;;;;;;;3.55;100.00;101884.88;5072062;28;20339;-73
2021/10/07 03:39:58;;;;;;;;;;;;;;;3.50;100.00;101888.59;5072119;28;19978;-73
2021/10/07 03:42:24;;;;;;;;;;;;;;;3.43;100.00;101889.69;5072058;28;20418;-73
2021/10/07 03:44:52;;;;;;;;;;;;;;;3.38;100.00;101893.47;5072405;28;19932;-73
2021/10/07 03:47:18;;;;;;;;;;;;;;;3.39;100.00;101895.22;5072212;28;19998;-73
2021/10/07 03:49:44;;;;;;;;;;;;;;;3.39;100.00;101900.59;5072279;28;20023;-73
2021/10/07 03:52:11;;;;;;;;;;;;;;;3.33;100.00;101894.50;5072113;28;19934;-73
2021/10/07 03:54:39;;;;;;;;;;;;;;;3.31;100.00;101904.41;5072317;28;20024;-73
2021/10/07 03:57:05;;;;;;;;;;;;;;;3.33;100.00;101909.72;5071998;28;19959;-73
2021/10/07 03:59:31;;;;;;;;;;;;;;;3.30;100.00;101913.38;5072133;28;20019;-73
2021/10/07 04:01:58;;;;;;;;;;;;;;;3.27;100.00;101908.09;5070491;28;20442;-73
2021/10/07 04:04:24;;;;;;;;;;;;;;;3.26;100.00;101909.06;5071957;28;19968;-73
2021/10/07 04:06:50;;;;;;;;;;;;;;;3.15;100.00;101906.72;5072061;28;20027;-73
2021/10/07 04:09:16;;;;;;;;;;;;;;;3.12;100.00;101911.28;5071805;28;20024;-73
2021/10/07 04:11:45;;;;;;;;;;;;;;;3.07;100.00;101910.53;5071974;28;20015;-74
2021/10/07 04:14:11;;;;;;;;;;;;;;;3.03;100.00;101912.44;5071805;28;20027;-68
2021/10/07 04:16:38;;;;;;;;;;;;;;;2.98;100.00;101912.59;5071507;28;20023;-68
2021/10/07 04:19:04;;;;;;;;;;;;;;;3.01;100.00;101917.84;5071532;28;20471;-68
2021/10/07 04:21:30;;;;;;;;;;;;;;;3.05;100.00;101913.28;5071469;28;20019;-68
2021/10/07 04:23:56;;;;;;;;;;;;;;;3.07;100.00;101922.13;5071698;28;19956;-68
2021/10/07 04:26:23;;;;;;;;;;;;;;;3.11;100.00;101923.78;5070176;28;19929;-68
2021/10/07 04:28:50;;;;;;;;;;;;;;;3.14;100.00;101922.81;5071650;28;20383;-68
2021/10/07 04:31:17;;;;;;;;;;;;;;;3.17;100.00;101931.66;5071300;28;20194;-68
2021/10/07 04:33:43;;;;;;;;;;;;;;;3.18;100.00;101933.44;5071284;28;19956;-68
2021/10/07 04:36:09;;;;;;;;;;;;;;;3.21;100.00;101942.28;5071081;28;20454;-68
2021/10/07 04:38:35;;;;;;;;;;;;;;;3.16;100.00;101946.00;5071410;28;20031;-69
2021/10/07 04:41:02;;;;;;;;;;;;;;;3.13;100.00;101947.94;5071371;28;20260;-69
2021/10/07 04:43:28;;;;;;;;;;;;;;;3.05;100.00;101949.94;5071201;28;19930;-68
2021/10/07 04:45:56;;;;;;;;;;;;;;;3.04;100.00;101946.38;5071228;28;19952;-68
2021/10/07 04:48:22;;;;;;;;;;;;;;;3.01;100.00;101944.69;5071511;28;20019;-68
2021/10/07 04:50:48;;;;;;;;;;;;;;;2.94;100.00;101951.16;5070286;28;19967;-69
2021/10/07 04:53:15;;;;;;;;;;;;;;;2.90;100.00;101951.28;5069609;28;20396;-68
2021/10/07 04:55:41;;;;;;;;;;;;;;;2.84;100.00;101955.03;5070858;28;20207;-69
2021/10/07 04:58:07;;;;;;;;;;;;;;;2.84;100.00;101950.53;5083341;28;20015;-69
2021/10/07 05:00:34;;;;;;;;;;;;;;;2.93;100.00;101964.63;5051945;28;19960;-69
2021/10/07 05:03:01;;;;;;;;;;;;;;;2.93;100.00;101961.94;5070072;28;20007;-73
2021/10/07 05:05:27;;;;;;;;;;;;;;;2.91;100.00;101963.78;5074822;28;20027;-73
2021/10/07 05:07:54;;;;;;;;;;;;;;;2.92;100.00;101971.78;5075207;28;20021;-69
2021/10/07 05:10:20;;;;;;;;;;;;;;;2.88;100.00;101969.25;5082453;28;20027;-70
2021/10/07 05:12:46;;;;;;;;;;;;;;;2.83;100.00;101967.56;5083290;28;19955;-69
2021/10/07 05:15:13;;;;;;;;;;;;;;;2.80;100.00;101972.13;5090004;28;20011;-70
2021/10/07 05:17:39;;;;;;;;;;;;;;;2.80;100.00;101974.81;5036346;28;20027;-69
2021/10/07 05:20:07;;;;;;;;;;;;;;;2.82;100.00;101976.53;5070828;28;20028;-70
2021/10/07 05:22:34;;;;;;;;;;;;;;;2.80;100.00;101983.72;5090560;28;19971;-69
2021/10/07 05:25:00;;;;;;;;;;;;;;;2.83;100.00;101989.03;5077577;28;20015;-69
2021/10/07 05:27:27;;;;;;;;;;;;;;;2.89;100.00;101997.84;5069583;28;20043;-69
2021/10/07 05:29:53;;;;;;;;;;;;;;;2.95;100.00;102003.00;5083476;28;20355;-69
2021/10/07 05:32:19;;;;;;;;;;;;;;;2.98;100.00;102008.25;5063822;28;20019;-69
2021/10/07 05:34:45;;;;;;;;;;;;;;;2.96;100.00;102004.75;5054449;28;19962;-69
2021/10/07 05:37:13;;;;;;;;;;;;;;;2.99;100.00;102015.41;5069938;28;19978;-69
2021/10/07 05:39:40;;;;;;;;;;;;;;;3.10;100.00;102013.28;5070258;28;20098;-69
2021/10/07 05:42:07;;;;;;;;;;;;;;;3.19;100.00;102012.13;5070088;28;19970;-69
2021/10/07 05:44:33;;;;;;;;;;;;;;;3.33;100.00;102019.78;5070339;28;20019;-69
2021/10/07 05:46:59;;;;;;;;;;;;;;;3.42;100.00;102011.44;5069442;28;19933;-69
2021/10/07 05:49:27;;;;;;;;;;;;;;;3.51;100.00;102013.84;5067762;28;20015;-69
2021/10/07 05:51:53;;;;;;;;;;;;;;;3.64;100.00;102013.47;5064987;28;20376;-69
2021/10/07 05:54:21;;;;;;;;;;;;;;;3.73;100.00;102014.94;5068464;28;20424;-70
2021/10/07 05:56:47;;;;;;;;;;;;;;;3.83;100.00;102021.81;5049242;28;19960;-69
2021/10/07 05:59:13;;;;;;;;;;;;;;;3.96;100.00;102027.66;5074959;28;19967;-69
2021/10/07 06:01:41;;;;;;;;;;;;;;;4.08;100.00;102031.75;5084348;28;19959;-69
2021/10/07 06:04:07;;;;;;;;;;;;;;;4.24;100.00;102034.81;5074097;28;19930;-69
2021/10/07 06:06:33;;;;;;;;;;;;;;;4.41;100.00;102037.81;5077136;28;20327;-70
2021/10/07 06:08:59;;;;;;;;;;;;;;;4.50;100.00;102042.88;5078430;28;20114;-69
2021/10/07 06:11:27;;;;;;;;;;;;;;;4.64;100.00;102044.19;5075225;28;19960;-69
2021/10/07 06:13:53;;;;;;;;;;;;;;;4.80;100.00;102042.69;5085081;28;20002;-69
2021/10/07 06:16:20;;;;;;;;;;;;;;;4.86;100.00;102039.78;5073558;28;20011;-69
2021/10/07 06:18:47;;;;;;;;;;;;;;;4.99;100.00;102044.72;5085723;28;19977;-69
2021/10/07 06:21:13;;;;;;;;;;;;;;;5.12;100.00;102053.22;5093497;28;20058;-69
2021/10/07 06:23:41;;;;;;;;;;;;;;;5.26;100.00;102053.56;5075311;28;19971;-69
2021/10/07 06:26:07;;;;;;;;;;;;;;;5.49;100.00;102055.41;5073654;28;19924;-69
2021/10/07 06:28:35;;;;;;;;;;;;;;;5.77;100.00;102058.81;5079778;28;19924;-69
2021/10/07 06:31:01;;;;;;;;;;;;;;;6.00;100.00;102053.41;5074860;28;20282;-69
2021/10/07 06:33:28;;;;;;;;;;;;;;;6.33;100.00;102052.06;5077128;28;20019;-69
2021/10/07 06:35:56;;;;;;;;;;;;;;;6.89;100.00;102052.38;5071706;28;19925;-69
2021/10/07 06:38:23;;;;;;;;;;;;;;;7.39;100.00;102054.59;5093707;28;20028;-69
2021/10/07 06:40:49;;;;;;;;;;;;;;;7.92;100.00;102061.06;5084893;28;20027;-69
2021/10/07 06:43:15;;;;;;;;;;;;;;;8.56;100.00;102053.41;5073234;28;20023;-70
2021/10/07 06:45:43;;;;;;;;;;;;;;;8.84;100.00;102046.56;5082187;28;20458;-69
2021/10/07 06:48:10;;;;;;;;;;;;;;;9.42;100.00;102050.66;5093394;28;19967;-69
2021/10/07 06:50:40;;;;;;;;;;;;;;;10.13;100.00;102053.91;5078048;28;19964;-69
2021/10/07 06:53:07;;;;;;;;;;;;;;;10.66;100.00;102055.31;5073878;28;19924;-69
2021/10/07 06:55:33;;;;;;;;;;;;;;;11.13;100.00;102050.63;5073267;28;19970;-67
2021/10/07 06:57:59;;;;;;;;;;;;;;;11.46;100.00;102040.44;5083348;28;20403;-70
2021/10/07 07:00:25;;;;;;;;;;;;;;;11.84;100.00;102039.81;5069796;28;20012;-68
2021/10/07 07:02:53;;;;;;;;;;;;;;;12.17;100.00;102042.16;5079800;28;20012;-68
2021/10/07 07:05:21;;;;;;;;;;;;;;;12.41;100.00;102038.72;5081368;28;19931;-68
2021/10/07 07:07:47;;;;;;;;;;;;;;;12.62;100.00;102035.53;5072959;28;19977;-68
2021/10/07 07:10:18;;;;;;;;;;;;;;;12.97;100.00;102046.66;5074785;28;19931;-68
2021/10/07 07:12:44;;;;;;;;;;;;;;;13.44;100.00;102032.50;5071345;28;19925;-73
2021/10/07 07:15:11;;;;;;;;;;;;;;;13.76;100.00;102032.84;5072452;28;19924;-73
2021/10/07 07:17:37;;;;;;;;;;;;;;;14.11;100.00;102043.00;5073018;28;19964;-70
2021/10/07 07:20:06;;;;;;;;;;;;;;;14.56;100.00;102037.75;5055700;28;19960;-70
2021/10/07 07:22:32;;;;;;;;;;;;;;;15.06;100.00;102037.53;5085737;28;20018;-70
2021/10/07 07:24:58;;;;;;;;;;;;;;;15.55;100.00;102035.44;5073521;28;19971;-68
2021/10/07 07:27:25;;;;;;;;;;;;;;;16.07;100.00;102040.31;5076662;28;20420;-68
2021/10/07 07:29:51;;;;;;;;;;;;;;;16.32;100.00;102044.59;5082709;28;20372;-73
2021/10/07 07:32:18;;;;;;;;;;;;;;;16.50;100.00;102047.66;5078023;28;20390;-73
2021/10/07 07:34:44;;;;;;;;;;;;;;;16.45;100.00;102049.91;5072518;28;19963;-73
2021/10/07 07:37:11;;;;;;;;;;;;;;;16.37;100.00;102047.84;5085998;28;20376;-73
2021/10/07 07:39:38;;;;;;;;;;;;;;;16.50;100.00;102055.88;5092697;28;19959;-73
2021/10/07 07:42:04;;;;;;;;;;;;;;;16.65;100.00;102064.66;5079601;28;20023;-73
2021/10/07 07:44:30;;;;;;;;;;;;;;;16.15;100.00;102056.13;5072446;28;19956;-73
2021/10/07 07:46:57;;;;;;;;;;;;;;;16.22;100.00;102063.69;5074407;28;19982;-73
2021/10/07 07:49:23;;;;;;;;;;;;;;;16.49;100.00;102067.84;5072269;28;19928;-73
2021/10/07 07:51:49;;;;;;;;;;;;;;;16.91;100.00;102064.28;5071871;28;20023;-73
2021/10/07 07:54:17;;;;;;;;;;;;;;;17.41;100.00;102071.81;5075330;28;20408;-73
2021/10/07 07:56:43;;;;;;;;;;;;;;;17.57;100.00;102068.53;5080643;28;20363;-73
2021/10/07 07:59:10;;;;;;;;;;;;;;;17.72;100.00;102074.53;5071662;28;19978;-70
2021/10/07 08:01:37;;;;;;;;;;;;;;;17.85;100.00;102068.78;5075172;28;19924;-69
2021/10/07 08:04:04;;;;;;;;;;;;;;;17.88;100.00;102068.53;5088092;28;20319;-70
2021/10/07 08:06:32;;;;;;;;;;;;;;;18.10;100.00;102072.94;5071867;28;19964;-69
2021/10/07 08:08:58;;;;;;;;;;;;;;;18.53;100.00;102070.81;5071499;28;19951;-70
2021/10/07 08:11:26;;;;;;;;;;;;;;;18.89;100.00;102072.00;5088738;28;19967;-70
2021/10/07 08:13:52;;;;;;;;;;;;;;;19.06;100.00;102072.25;5092282;28;20456;-70
2021/10/07 08:16:19;;;;;;;;;;;;;;;19.27;100.00;102073.91;5075099;28;20005;-69
2021/10/07 08:18:45;;;;;;;;;;;;;;;19.36;100.00;102078.53;5071567;28;20035;-70
2021/10/07 08:21:12;;;;;;;;;;;;;;;19.73;100.00;102085.91;5071589;28;19964;-69
2021/10/07 08:23:38;;;;;;;;;;;;;;;19.80;100.00;102087.06;5071412;28;20014;-69
2021/10/07 08:26:04;;;;;;;;;;;;;;;20.12;100.00;102085.72;5078397;28;20025;-69
2021/10/07 08:28:32;;;;;;;;;;;;;;;20.36;100.00;102092.53;5089263;28;19975;-69
2021/10/07 08:30:58;;;;;;;;;;;;;;;20.19;100.00;102084.09;5071529;28;20314;-69
2021/10/07 08:33:24;;;;;;;;;;;;;;;20.35;100.00;102088.03;5071534;28;20023;-68
2021/10/07 08:35:51;;;;;;;;;;;;;;;20.18;100.00;102090.63;5091436;28;20399;-68
2021/10/07 08:38:18;;;;;;;;;;;;;;;20.24;100.00;102090.03;5091530;28;19975;-68
2021/10/07 08:40:44;;;;;;;;;;;;;;;20.61;100.00;102098.31;5053506;28;19925;-68
2021/10/07 08:43:10;;;;;;;;;;;;;;;21.01;100.00;102097.81;5052967;28;19928;-68
2021/10/07 08:45:38;;;;;;;;;;;;;;;20.64;100.00;102090.56;5089342;28;19966;-68
2021/10/07 08:48:05;;;;;;;;;;;;;;;20.81;100.00;102090.78;5086910;28;20403;-68
2021/10/07 08:50:31;;;;;;;;;;;;;;;21.14;100.00;102091.00;5087886;28;19977;-68
2021/10/07 08:52:58;;;;;;;;;;;;;;;21.45;100.00;102094.16;5091027;28;19967;-68
2021/10/07 08:55:24;;;;;;;;;;;;;;;21.35;100.00;102101.69;5075729;28;20011;-68
2021/10/07 08:57:50;;;;;;;;;;;;;;;21.05;100.00;102104.75;5082624;28;20015;-68
2021/10/07 09:00:17;;;;;;;;;;;;;;;20.98;100.00;102105.53;5070747;28;20032;-69
2021/10/07 09:02:44;;;;;;;;;;;;;;;21.15;100.00;102109.31;5071028;28;20415;-69
2021/10/07 09:05:13;;;;;;;;;;;;;;;21.19;100.00;102113.47;5077783;28;20474;-69
2021/10/07 09:08:09;;;;;;;;;;;;;;;21.23;100.00;102115.78;5071445;28;19963;-69
2021/10/07 09:10:37;;;;;;;;;;;;;;;21.33;100.00;102121.19;5009128;28;20317;-69
2021/10/07 09:13:04;;;;;;;;;;;;;;;21.15;100.00;102123.13;5065882;28;19970;-73
2021/10/07 09:15:31;;;;;;;;;;;;;;;21.09;100.00;102124.63;5087599;28;20451;-72
2021/10/07 09:18:03;;;;;;;;;;;;;;;21.40;100.00;102125.00;5071937;28;20355;-72
2021/10/07 09:20:33;;;;;;;;;;;;;;;21.08;100.00;102120.13;5089987;28;19978;-72
2021/10/07 09:23:04;;;;;;;;;;;;;;;21.42;100.00;102122.13;5074464;28;20007;-72
2021/10/07 09:25:30;;;;;;;;;;;;;;;21.86;100.00;102124.81;5070457;28;19959;-72
2021/10/07 09:28:02;;;;;;;;;;;;;;;21.86;100.00;102123.91;5073934;28;19924;-73
2021/10/07 09:30:28;;;;;;;;;;;;;;;22.20;100.00;102121.13;5074166;28;20023;-72
2021/10/07 09:33:00;;;;;;;;;;;;;;;22.44;100.00;102119.50;5069868;28;20011;-72
2021/10/07 09:35:28;;;;;;;;;;;;;;;22.51;99.29;102120.53;5074620;28;20021;-73
2021/10/07 09:37:57;;;;;;;;;;;;;;;22.38;94.79;102112.75;5086347;28;20015;-73
2021/10/07 09:40:25;;;;;;;;;;;;;;;21.93;95.69;102125.00;5095026;28;20295;-72
2021/10/07 09:42:52;;;;;;;;;;;;;;;22.40;100.00;102115.34;5079130;28;20024;-72
2021/10/07 09:45:20;;;;;;;;;;;;;;;22.00;94.69;102120.53;5074394;28;20015;-72
2021/10/07 09:47:47;;;;;;;;;;;;;;;22.18;100.00;102120.44;5080249;28;20019;-72
2021/10/07 09:50:16;;;;;;;;;;;;;;;21.99;92.09;102120.69;5075285;28;19959;-72
2021/10/07 09:52:45;;;;;;;;;;;;;;;22.01;96.94;102127.78;5087021;28;19994;-72
2021/10/07 09:55:12;;;;;;;;;;;;;;;22.12;100.00;102125.78;5094629;28;20012;-72
2021/10/07 09:57:48;;;;;;;;;;;;;;;22.29;100.00;102121.13;5081553;28;19959;-74
2021/10/07 10:00:14;;;;;;;;;;;;;;;22.73;94.87;102118.16;5080111;28;19955;-72
2021/10/07 10:02:40;;;;;;;;;;;;;;;22.52;86.39;102118.66;5076354;28;20027;-73
2021/10/07 10:05:09;;;;;;;;;;;;;;;22.34;97.35;102124.25;5090026;28;19963;-73
2021/10/07 10:07:35;;;;;;;;;;;;;;;22.48;88.82;102122.78;5085109;28;20125;-73
2021/10/07 10:10:03;;;;;;;;;;;;;;;22.47;82.68;102118.28;5073691;28;20023;-73
2021/10/07 10:12:29;;;;;;;;;;;;;;;22.46;89.59;102124.84;5073723;28;20348;-74
2021/10/07 10:14:56;;;;;;;;;;;;;;;22.15;83.13;102117.97;5085486;28;19994;-73
2021/10/07 10:17:23;;;;;;;;;;;;;;;22.07;90.75;102117.97;5092383;28;19970;-73
2021/10/07 10:19:52;;;;;;;;;;;;;;;21.96;85.08;102121.03;5059613;28;20364;-73
2021/10/07 10:22:21;;;;;;;;;;;;;;;22.22;92.24;102118.19;5056791;28;20022;-73
2021/10/07 10:24:48;;;;;;;;;;;;;;;21.85;80.73;102112.00;5077336;28;19970;-75
2021/10/07 10:27:16;;;;;;;;;;;;;;;22.17;80.97;102120.59;5074710;28;20019;-75
2021/10/07 10:29:42;;;;;;;;;;;;;;;22.10;79.48;102131.47;5035989;28;20369;-75
2021/10/07 10:32:12;;;;;;;;;;;;;;;21.95;77.51;102133.13;5053403;28;19964;-72
2021/10/07 10:34:39;;;;;;;;;;;;;;;21.92;77.57;102134.31;5090256;28;19924;-73
2021/10/07 10:37:05;;;;;;;;;;;;;;;21.84;75.51;102131.53;5088056;28;20089;-73
2021/10/07 10:39:34;;;;;;;;;;;;;;;21.88;75.83;102128.25;5075591;28;20027;-74
2021/10/07 10:42:02;;;;;;;;;;;;;;;21.65;73.63;102133.50;5060260;28;20307;-74
2021/10/07 10:44:30;;;;;;;;;;;;;;;21.55;70.72;102127.22;5073217;28;20400;-73
2021/10/07 10:46:58;;;;;;;;;;;;;;;21.67;71.96;102127.81;5076639;28;20557;-73
2021/10/07 10:49:35;;;;;;;;;;;;;;;21.78;80.78;102135.81;5072485;28;19964;-73
2021/10/07 10:52:02;;;;;;;;;;;;;;;21.86;75.74;102137.72;5057160;28;20375;-74
2021/10/07 10:54:30;;;;;;;;;;;;;;;21.84;80.12;102137.06;5073355;28;19929;-73
2021/10/07 10:56:58;;;;;;;;;;;;;;;21.89;86.07;102141.03;5073160;28;20019;-67
2021/10/07 10:59:26;;;;;;;;;;;;;;;21.99;90.84;102138.13;5073341;28;19928;-68
2021/10/07 11:02:19;;;;;;;;;;;;;;;21.93;83.91;102149.00;5080803;28;19964;-70
2021/10/07 11:04:47;;;;;;;;;;;;;;;21.81;84.22;102154.81;5036945;28;19974;-69
2021/10/07 11:07:18;;;;;;;;;;;;;;;21.79;89.34;102144.97;5090262;28;19970;-69
2021/10/07 11:10:01;;;;;;;;;;;;;;;21.68;76.36;102152.50;5093432;28;20391;-69
2021/10/07 11:12:31;;;;;;;;;;;;;;;21.88;88.30;102155.03;5073772;28;19975;-69
2021/10/07 11:14:57;;;;;;;;;;;;;;;21.63;74.16;102145.75;5082555;28;19928;-69
2021/10/07 11:17:27;;;;;;;;;;;;;;;21.54;78.69;102151.22;5077271;28;19931;-69
2021/10/07 11:19:55;;;;;;;;;;;;;;;21.74;74.64;102151.00;5055198;28;20395;-69
2021/10/07 11:22:23;;;;;;;;;;;;;;;21.38;72.43;102142.81;5087289;28;19978;-67
2021/10/07 11:24:50;;;;;;;;;;;;;;;21.55;76.83;102146.56;5093060;28;19930;-67
2021/10/07 11:27:28;;;;;;;;;;;;;;;21.67;75.73;102141.63;5078717;28;19928;-67
2021/10/07 11:29:54;;;;;;;;;;;;;;;22.07;68.32;102152.03;5072829;28;20005;-69
2021/10/07 11:32:21;;;;;;;;;;;;;;;22.15;81.57;102148.41;5073482;28;19963;-69
2021/10/07 11:34:58;;;;;;;;;;;;;;;22.05;75.82;102150.47;5072895;28;19928;-69
2021/10/07 11:37:24;;;;;;;;;;;;;;;22.05;77.75;102151.31;5072342;28;20368;-69
2021/10/07 11:39:50;;;;;;;;;;;;;;;21.54;72.74;102148.47;5076903;28;20023;-69
2021/10/07 11:42:32;;;;;;;;;;;;;;;21.18;72.58;102143.00;5092575;28;20035;-67
2021/10/07 11:44:58;;;;;;;;;;;;;;;21.21;78.95;102145.41;5088152;28;19978;-67
2021/10/07 11:47:27;;;;;;;;;;;;;;;21.67;74.93;102144.38;5091027;28;20015;-67
2021/10/07 11:50:09;;;;;;;;;;;;;;;22.06;74.09;102146.63;5087271;28;19968;-67
2021/10/07 11:52:38;;;;;;;;;;;;;;;22.13;75.38;102138.53;5085040;28;20011;-66
2021/10/07 11:55:05;;;;;;;;;;;;;;;22.51;79.50;102134.38;5090653;28;20019;-66
2021/10/07 11:57:32;;;;;;;;;;;;;;;22.92;75.02;102136.31;5092253;28;20014;-66
2021/10/07 11:59:58;;;;;;;;;;;;;;;22.88;68.53;102133.03;5086058;28;19925;-65
2021/10/07 12:02:25;;;;;;;;;;;;;;;22.86;70.00;102131.47;5079802;28;19963;-75
2021/10/07 12:04:51;;;;;;;;;;;;;;;23.03;74.11;102143.41;5076867;28;19959;-73
2021/10/07 12:07:17;;;;;;;;;;;;;;;22.93;77.06;102140.84;5074197;28;20027;-73
2021/10/07 12:09:45;;;;;;;;;;;;;;;23.23;65.08;102138.41;5072014;28;19990;-73
2021/10/07 12:12:11;;;;;;;;;;;;;;;23.49;67.43;102132.69;5071542;28;20199;-75
2021/10/07 12:14:41;;;;;;;;;;;;;;;23.86;67.10;102133.09;5072740;28;20060;-75
2021/10/07 12:17:07;;;;;;;;;;;;;;;23.92;62.89;102137.94;5071634;28;19925;-69
2021/10/07 12:19:34;;;;;;;;;;;;;;;24.28;66.29;102133.78;5072928;28;20366;-69
2021/10/07 12:22:03;;;;;;;;;;;;;;;24.01;59.30;102136.00;5071483;28;20318;-68
2021/10/07 12:24:30;;;;;;;;;;;;;;;23.59;66.23;102129.69;5081568;28;19924;-68
2021/10/07 12:26:59;;;;;;;;;;;;;;;23.67;62.09;102132.44;5078982;28;20431;-69
2021/10/07 12:29:26;;;;;;;;;;;;;;;23.47;64.54;102129.22;5072653;28;19924;-68
2021/10/07 12:31:54;;;;;;;;;;;;;;;23.46;56.00;102133.00;5076993;28;20470;-69
2021/10/07 12:34:20;;;;;;;;;;;;;;;24.01;57.02;102127.69;5071417;28;20030;-69
2021/10/07 12:36:49;;;;;;;;;;;;;;;24.27;54.33;102126.53;5083721;28;20114;-69
2021/10/07 12:39:21;;;;;;;;;;;;;;;24.62;59.50;102125.09;5083086;28;21548;-73